sensor_id;sensor_type;location;lat;lon;timestamp;P1;durP1;ratioP1;P2;durP2;ratioP2
21697;SDS011;11010;49.548;11.926;2023-03-01T00:01:29;21.27;;;9.13;;
21697;SDS011;11010;49.548;11.926;2023-03-01T00:03:57;20.03;;;8.10;;
21697;SDS011;11010;49.548;11.926;2023-03-01T00:06:25;19.33;;;8.37;;
21697;SDS011;11010;49.548;11.926;2023-03-01T00:08:54;17.47;;;8.33;;
21697;SDS011;11010;49.548;11.926;2023-03-01T00:11:25;21.17;;;8.60;;
21697;SDS011;11010;49.548;11.926;2023-03-01T00:13:57;19.73;;;8.70;;
21697;SDS011;11010;49.548;11.926;2023-03-01T00:16:29;18.83;;;8.67;;
21697;SDS011;11010;49.548;11.926;2023-03-01T00:18:58;20.70;;;9.03;;
21697;SDS011;11010;49.548;11.926;2023-03-01T00:21:26;21.30;;;8.57;;
21697;SDS011;11010;49.548;11.926;2023-03-01T00:23:54;18.63;;;8.13;;
21697;SDS011;11010;49.548;11.926;2023-03-01T00:26:23;20.07;;;8.03;;
21697;SDS011;11010;49.548;11.926;2023-03-01T00:28:51;20.63;;;8.37;;
21697;SDS011;11010;49.548;11.926;2023-03-01T00:31:21;18.47;;;8.20;;
21697;SDS011;11010;49.548;11.926;2023-03-01T00:33:54;18.80;;;8.20;;
21697;SDS011;11010;49.548;11.926;2023-03-01T00:36:27;20.93;;;8.87;;
21697;SDS011;11010;49.548;11.926;2023-03-01T00:38:57;18.67;;;7.90;;
21697;SDS011;11010;49.548;11.926;2023-03-01T00:41:25;19.97;;;8.40;;
21697;SDS011;11010;49.548;11.926;2023-03-01T00:43:55;18.63;;;8.10;;
21697;SDS011;11010;49.548;11.926;2023-03-01T00:46:24;19.33;;;8.20;;
21697;SDS011;11010;49.548;11.926;2023-03-01T00:48:53;20.07;;;8.57;;
21697;SDS011;11010;49.548;11.926;2023-03-01T00:51:22;20.70;;;8.63;;
21697;SDS011;11010;49.548;11.926;2023-03-01T00:53:53;20.97;;;8.70;;
21697;SDS011;11010;49.548;11.926;2023-03-01T00:56:22;21.00;;;8.57;;
21697;SDS011;11010;49.548;11.926;2023-03-01T00:58:49;19.67;;;8.37;;
21697;SDS011;11010;49.548;11.926;2023-03-01T01:01:19;18.57;;;8.17;;
21697;SDS011;11010;49.548;11.926;2023-03-01T01:03:52;19.73;;;8.53;;
21697;SDS011;11010;49.548;11.926;2023-03-01T01:06:23;17.93;;;8.37;;
21697;SDS011;11010;49.548;11.926;2023-03-01T01:08:52;19.27;;;8.60;;
21697;SDS011;11010;49.548;11.926;2023-03-01T01:11:21;19.47;;;8.63;;
21697;SDS011;11010;49.548;11.926;2023-03-01T01:13:50;17.63;;;8.17;;
21697;SDS011;11010;49.548;11.926;2023-03-01T01:16:18;18.67;;;8.33;;
21697;SDS011;11010;49.548;11.926;2023-03-01T01:18:46;20.57;;;8.43;;
21697;SDS011;11010;49.548;11.926;2023-03-01T01:21:15;18.57;;;7.87;;
21697;SDS011;11010;49.548;11.926;2023-03-01T01:23:45;18.83;;;8.30;;
21697;SDS011;11010;49.548;11.926;2023-03-01T01:26:17;18.97;;;7.80;;
21697;SDS011;11010;49.548;11.926;2023-03-01T01:28:48;18.47;;;7.97;;
21697;SDS011;11010;49.548;11.926;2023-03-01T01:31:17;20.03;;;8.00;;
21697;SDS011;11010;49.548;11.926;2023-03-01T01:33:45;20.27;;;8.17;;
21697;SDS011;11010;49.548;11.926;2023-03-01T01:36:12;17.50;;;7.93;;
21697;SDS011;11010;49.548;11.926;2023-03-01T01:38:40;18.93;;;7.73;;
21697;SDS011;11010;49.548;11.926;2023-03-01T01:41:09;18.77;;;8.03;;
21697;SDS011;11010;49.548;11.926;2023-03-01T01:43:45;19.57;;;8.03;;
21697;SDS011;11010;49.548;11.926;2023-03-01T01:46:25;20.27;;;7.77;;
21697;SDS011;11010;49.548;11.926;2023-03-01T01:49:00;19.80;;;8.50;;
21697;SDS011;11010;49.548;11.926;2023-03-01T01:51:33;18.67;;;8.07;;
21697;SDS011;11010;49.548;11.926;2023-03-01T01:54:06;18.63;;;8.13;;
21697;SDS011;11010;49.548;11.926;2023-03-01T01:57:06;17.63;;;7.67;;
21697;SDS011;11010;49.548;11.926;2023-03-01T01:59:37;19.90;;;8.53;;
21697;SDS011;11010;49.548;11.926;2023-03-01T02:02:08;19.13;;;8.13;;
21697;SDS011;11010;49.548;11.926;2023-03-01T02:04:36;19.97;;;8.43;;
21697;SDS011;11010;49.548;11.926;2023-03-01T02:07:06;19.37;;;8.43;;
21697;SDS011;11010;49.548;11.926;2023-03-01T02:09:46;19.03;;;8.40;;
21697;SDS011;11010;49.548;11.926;2023-03-01T02:12:15;19.07;;;7.93;;
21697;SDS011;11010;49.548;11.926;2023-03-01T02:14:46;20.37;;;7.57;;
21697;SDS011;11010;49.548;11.926;2023-03-01T02:17:14;18.10;;;7.60;;
21697;SDS011;11010;49.548;11.926;2023-03-01T02:22:34;19.23;;;8.10;;
21697;SDS011;11010;49.548;11.926;2023-03-01T02:27:40;17.10;;;8.23;;
21697;SDS011;11010;49.548;11.926;2023-03-01T02:30:24;19.63;;;8.10;;
21697;SDS011;11010;49.548;11.926;2023-03-01T02:32:52;19.87;;;8.43;;
21697;SDS011;11010;49.548;11.926;2023-03-01T02:35:36;20.20;;;8.57;;
21697;SDS011;11010;49.548;11.926;2023-03-01T02:38:06;18.37;;;8.30;;
21697;SDS011;11010;49.548;11.926;2023-03-01T02:40:35;20.00;;;8.63;;
21697;SDS011;11010;49.548;11.926;2023-03-01T02:43:06;17.90;;;8.17;;
21697;SDS011;11010;49.548;11.926;2023-03-01T02:45:38;19.70;;;7.67;;
21697;SDS011;11010;49.548;11.926;2023-03-01T02:48:15;19.13;;;8.03;;
21697;SDS011;11010;49.548;11.926;2023-03-01T02:53:27;20.37;;;7.90;;
21697;SDS011;11010;49.548;11.926;2023-03-01T02:56:01;19.13;;;8.20;;
21697;SDS011;11010;49.548;11.926;2023-03-01T02:58:29;18.63;;;8.13;;
21697;SDS011;11010;49.548;11.926;2023-03-01T03:00:56;20.13;;;8.73;;
21697;SDS011;11010;49.548;11.926;2023-03-01T03:03:25;18.33;;;7.57;;
21697;SDS011;11010;49.548;11.926;2023-03-01T03:05:52;22.10;;;8.43;;
21697;SDS011;11010;49.548;11.926;2023-03-01T03:08:19;17.77;;;8.10;;
21697;SDS011;11010;49.548;11.926;2023-03-01T03:10:51;18.63;;;7.63;;
21697;SDS011;11010;49.548;11.926;2023-03-01T03:13:19;21.13;;;8.37;;
21697;SDS011;11010;49.548;11.926;2023-03-01T03:15:49;19.23;;;8.50;;
21697;SDS011;11010;49.548;11.926;2023-03-01T03:18:16;19.10;;;8.13;;
21697;SDS011;11010;49.548;11.926;2023-03-01T03:20:45;20.40;;;8.43;;
21697;SDS011;11010;49.548;11.926;2023-03-01T03:23:13;18.70;;;7.83;;
21697;SDS011;11010;49.548;11.926;2023-03-01T03:25:40;19.30;;;8.57;;
21697;SDS011;11010;49.548;11.926;2023-03-01T03:28:07;20.13;;;8.30;;
21697;SDS011;11010;49.548;11.926;2023-03-01T03:30:38;16.87;;;8.00;;
21697;SDS011;11010;49.548;11.926;2023-03-01T03:33:08;20.23;;;8.20;;
21697;SDS011;11010;49.548;11.926;2023-03-01T03:35:43;18.67;;;8.23;;
21697;SDS011;11010;49.548;11.926;2023-03-01T03:38:13;19.07;;;8.10;;
21697;SDS011;11010;49.548;11.926;2023-03-01T03:40:48;18.97;;;8.07;;
21697;SDS011;11010;49.548;11.926;2023-03-01T03:43:21;19.10;;;8.07;;
21697;SDS011;11010;49.548;11.926;2023-03-01T03:45:50;19.73;;;8.50;;
21697;SDS011;11010;49.548;11.926;2023-03-01T03:48:18;21.67;;;8.30;;
21697;SDS011;11010;49.548;11.926;2023-03-01T03:50:51;19.80;;;8.30;;
21697;SDS011;11010;49.548;11.926;2023-03-01T03:53:20;19.07;;;8.23;;
21697;SDS011;11010;49.548;11.926;2023-03-01T03:55:48;23.17;;;8.17;;
21697;SDS011;11010;49.548;11.926;2023-03-01T03:58:16;21.40;;;8.10;;
21697;SDS011;11010;49.548;11.926;2023-03-01T04:00:47;18.73;;;8.07;;
21697;SDS011;11010;49.548;11.926;2023-03-01T04:03:16;19.50;;;8.37;;
21697;SDS011;11010;49.548;11.926;2023-03-01T04:05:45;20.00;;;8.33;;
21697;SDS011;11010;49.548;11.926;2023-03-01T04:08:13;19.37;;;8.13;;
21697;SDS011;11010;49.548;11.926;2023-03-01T04:10:44;21.37;;;8.63;;
21697;SDS011;11010;49.548;11.926;2023-03-01T04:13:15;21.27;;;8.37;;
21697;SDS011;11010;49.548;11.926;2023-03-01T04:15:47;17.27;;;7.63;;
21697;SDS011;11010;49.548;11.926;2023-03-01T04:18:19;19.10;;;8.10;;
21697;SDS011;11010;49.548;11.926;2023-03-01T04:20:49;17.33;;;7.77;;
21697;SDS011;11010;49.548;11.926;2023-03-01T04:23:19;19.87;;;7.97;;
21697;SDS011;11010;49.548;11.926;2023-03-01T04:25:57;19.13;;;8.27;;
21697;SDS011;11010;49.548;11.926;2023-03-01T04:28:27;20.30;;;8.07;;
21697;SDS011;11010;49.548;11.926;2023-03-01T04:31:08;19.33;;;7.97;;
21697;SDS011;11010;49.548;11.926;2023-03-01T04:33:44;20.87;;;8.30;;
21697;SDS011;11010;49.548;11.926;2023-03-01T04:36:18;19.07;;;7.47;;
21697;SDS011;11010;49.548;11.926;2023-03-01T04:42:49;19.00;;;7.77;;
21697;SDS011;11010;49.548;11.926;2023-03-01T04:45:16;19.67;;;8.13;;
21697;SDS011;11010;49.548;11.926;2023-03-01T04:47:45;18.27;;;8.33;;
21697;SDS011;11010;49.548;11.926;2023-03-01T04:50:14;19.97;;;8.30;;
21697;SDS011;11010;49.548;11.926;2023-03-01T04:52:43;19.60;;;8.43;;
21697;SDS011;11010;49.548;11.926;2023-03-01T04:55:11;17.43;;;7.77;;
21697;SDS011;11010;49.548;11.926;2023-03-01T04:57:39;16.73;;;7.60;;
21697;SDS011;11010;49.548;11.926;2023-03-01T05:00:07;20.37;;;8.10;;
21697;SDS011;11010;49.548;11.926;2023-03-01T05:05:20;19.77;;;8.10;;
21697;SDS011;11010;49.548;11.926;2023-03-01T05:07:53;19.73;;;8.00;;
21697;SDS011;11010;49.548;11.926;2023-03-01T05:10:25;18.87;;;8.30;;
21697;SDS011;11010;49.548;11.926;2023-03-01T05:12:56;19.47;;;8.13;;
21697;SDS011;11010;49.548;11.926;2023-03-01T05:15:25;20.27;;;8.37;;
21697;SDS011;11010;49.548;11.926;2023-03-01T05:17:58;18.47;;;7.93;;
21697;SDS011;11010;49.548;11.926;2023-03-01T05:20:28;19.93;;;8.67;;
21697;SDS011;11010;49.548;11.926;2023-03-01T05:22:57;18.60;;;8.40;;
21697;SDS011;11010;49.548;11.926;2023-03-01T05:25:26;20.80;;;7.93;;
21697;SDS011;11010;49.548;11.926;2023-03-01T05:28:00;20.23;;;8.20;;
21697;SDS011;11010;49.548;11.926;2023-03-01T05:30:33;20.63;;;8.60;;
21697;SDS011;11010;49.548;11.926;2023-03-01T05:33:01;18.13;;;7.77;;
21697;SDS011;11010;49.548;11.926;2023-03-01T05:35:29;19.67;;;8.20;;
21697;SDS011;11010;49.548;11.926;2023-03-01T05:37:59;19.53;;;8.13;;
21697;SDS011;11010;49.548;11.926;2023-03-01T05:40:26;22.23;;;8.03;;
21697;SDS011;11010;49.548;11.926;2023-03-01T05:42:55;18.00;;;8.40;;
21697;SDS011;11010;49.548;11.926;2023-03-01T05:45:24;19.90;;;8.30;;
21697;SDS011;11010;49.548;11.926;2023-03-01T05:47:53;17.07;;;7.30;;
21697;SDS011;11010;49.548;11.926;2023-03-01T05:50:23;18.97;;;8.33;;
21697;SDS011;11010;49.548;11.926;2023-03-01T05:52:57;20.00;;;8.33;;
21697;SDS011;11010;49.548;11.926;2023-03-01T05:55:26;18.70;;;8.27;;
21697;SDS011;11010;49.548;11.926;2023-03-01T05:57:55;23.33;;;8.80;;
21697;SDS011;11010;49.548;11.926;2023-03-01T06:00:26;20.67;;;8.90;;
21697;SDS011;11010;49.548;11.926;2023-03-01T06:02:55;19.33;;;8.57;;
21697;SDS011;11010;49.548;11.926;2023-03-01T06:05:23;22.70;;;8.63;;
21697;SDS011;11010;49.548;11.926;2023-03-01T06:07:52;19.23;;;8.10;;
21697;SDS011;11010;49.548;11.926;2023-03-01T06:10:20;19.53;;;8.40;;
21697;SDS011;11010;49.548;11.926;2023-03-01T06:12:48;19.90;;;8.33;;
21697;SDS011;11010;49.548;11.926;2023-03-01T06:15:16;21.07;;;8.37;;
21697;SDS011;11010;49.548;11.926;2023-03-01T06:17:45;19.80;;;8.67;;
21697;SDS011;11010;49.548;11.926;2023-03-01T06:22:42;21.50;;;8.80;;
21697;SDS011;11010;49.548;11.926;2023-03-01T06:25:11;22.20;;;8.33;;
21697;SDS011;11010;49.548;11.926;2023-03-01T06:27:39;18.63;;;8.50;;
21697;SDS011;11010;49.548;11.926;2023-03-01T06:30:08;21.80;;;9.30;;
21697;SDS011;11010;49.548;11.926;2023-03-01T06:32:38;22.50;;;9.10;;
21697;SDS011;11010;49.548;11.926;2023-03-01T06:35:10;25.07;;;9.30;;
21697;SDS011;11010;49.548;11.926;2023-03-01T06:37:39;23.13;;;9.30;;
21697;SDS011;11010;49.548;11.926;2023-03-01T06:40:07;24.20;;;9.70;;
21697;SDS011;11010;49.548;11.926;2023-03-01T06:42:39;21.87;;;9.10;;
21697;SDS011;11010;49.548;11.926;2023-03-01T06:45:08;21.27;;;8.60;;
21697;SDS011;11010;49.548;11.926;2023-03-01T06:47:36;24.53;;;10.10;;
21697;SDS011;11010;49.548;11.926;2023-03-01T06:50:04;25.97;;;9.77;;
21697;SDS011;11010;49.548;11.926;2023-03-01T06:52:31;24.10;;;9.27;;
21697;SDS011;11010;49.548;11.926;2023-03-01T06:54:59;20.60;;;9.10;;
21697;SDS011;11010;49.548;11.926;2023-03-01T06:57:27;21.37;;;8.60;;
21697;SDS011;11010;49.548;11.926;2023-03-01T06:59:54;24.67;;;9.63;;
21697;SDS011;11010;49.548;11.926;2023-03-01T07:02:22;21.20;;;8.83;;
21697;SDS011;11010;49.548;11.926;2023-03-01T07:04:50;22.60;;;9.27;;
21697;SDS011;11010;49.548;11.926;2023-03-01T07:07:18;22.30;;;10.13;;
21697;SDS011;11010;49.548;11.926;2023-03-01T07:09:46;22.93;;;9.70;;
21697;SDS011;11010;49.548;11.926;2023-03-01T07:12:15;22.23;;;8.97;;
21697;SDS011;11010;49.548;11.926;2023-03-01T07:14:43;22.87;;;9.27;;
21697;SDS011;11010;49.548;11.926;2023-03-01T07:17:11;25.50;;;10.13;;
21697;SDS011;11010;49.548;11.926;2023-03-01T07:19:38;22.13;;;8.70;;
21697;SDS011;11010;49.548;11.926;2023-03-01T07:22:06;21.17;;;9.17;;
21697;SDS011;11010;49.548;11.926;2023-03-01T07:24:34;23.67;;;9.80;;
21697;SDS011;11010;49.548;11.926;2023-03-01T07:27:01;25.70;;;10.60;;
21697;SDS011;11010;49.548;11.926;2023-03-01T07:29:29;22.10;;;9.53;;
21697;SDS011;11010;49.548;11.926;2023-03-01T07:31:57;21.90;;;9.37;;
21697;SDS011;11010;49.548;11.926;2023-03-01T07:34:25;24.77;;;9.93;;
21697;SDS011;11010;49.548;11.926;2023-03-01T07:36:52;23.53;;;9.93;;
21697;SDS011;11010;49.548;11.926;2023-03-01T07:39:20;23.20;;;10.13;;
21697;SDS011;11010;49.548;11.926;2023-03-01T07:41:49;25.20;;;10.47;;
21697;SDS011;11010;49.548;11.926;2023-03-01T07:44:21;23.67;;;10.03;;
21697;SDS011;11010;49.548;11.926;2023-03-01T07:46:48;22.63;;;9.90;;
21697;SDS011;11010;49.548;11.926;2023-03-01T07:49:15;24.73;;;9.73;;
21697;SDS011;11010;49.548;11.926;2023-03-01T07:51:43;24.57;;;10.37;;
21697;SDS011;11010;49.548;11.926;2023-03-01T07:54:10;26.90;;;10.27;;
21697;SDS011;11010;49.548;11.926;2023-03-01T07:56:38;24.90;;;10.97;;
21697;SDS011;11010;49.548;11.926;2023-03-01T07:59:05;26.07;;;10.80;;
21697;SDS011;11010;49.548;11.926;2023-03-01T08:01:32;24.53;;;10.30;;
21697;SDS011;11010;49.548;11.926;2023-03-01T08:04:00;25.03;;;10.80;;
21697;SDS011;11010;49.548;11.926;2023-03-01T08:06:28;24.37;;;9.63;;
21697;SDS011;11010;49.548;11.926;2023-03-01T08:08:56;27.53;;;11.40;;
21697;SDS011;11010;49.548;11.926;2023-03-01T08:11:25;24.33;;;10.93;;
21697;SDS011;11010;49.548;11.926;2023-03-01T08:13:54;28.37;;;11.97;;
21697;SDS011;11010;49.548;11.926;2023-03-01T08:16:23;29.20;;;11.13;;
21697;SDS011;11010;49.548;11.926;2023-03-01T08:18:51;30.20;;;11.80;;
21697;SDS011;11010;49.548;11.926;2023-03-01T08:21:18;25.87;;;11.07;;
21697;SDS011;11010;49.548;11.926;2023-03-01T08:23:45;25.90;;;11.57;;
21697;SDS011;11010;49.548;11.926;2023-03-01T08:26:14;28.80;;;12.93;;
21697;SDS011;11010;49.548;11.926;2023-03-01T08:28:43;28.30;;;11.90;;
21697;SDS011;11010;49.548;11.926;2023-03-01T08:33:57;27.20;;;11.47;;
21697;SDS011;11010;49.548;11.926;2023-03-01T08:36:28;29.73;;;12.10;;
21697;SDS011;11010;49.548;11.926;2023-03-01T08:39:00;30.23;;;11.70;;
21697;SDS011;11010;49.548;11.926;2023-03-01T08:41:28;26.70;;;11.70;;
21697;SDS011;11010;49.548;11.926;2023-03-01T08:43:56;25.93;;;12.13;;
21697;SDS011;11010;49.548;11.926;2023-03-01T08:46:27;27.50;;;11.93;;
21697;SDS011;11010;49.548;11.926;2023-03-01T08:48:56;25.53;;;10.87;;
21697;SDS011;11010;49.548;11.926;2023-03-01T08:51:24;31.70;;;12.30;;
21697;SDS011;11010;49.548;11.926;2023-03-01T08:53:52;25.97;;;11.70;;
21697;SDS011;11010;49.548;11.926;2023-03-01T08:56:20;29.27;;;12.03;;
21697;SDS011;11010;49.548;11.926;2023-03-01T08:58:48;26.67;;;11.87;;
21697;SDS011;11010;49.548;11.926;2023-03-01T09:01:16;25.93;;;11.60;;
21697;SDS011;11010;49.548;11.926;2023-03-01T09:03:45;25.67;;;11.47;;
21697;SDS011;11010;49.548;11.926;2023-03-01T09:06:13;26.83;;;11.57;;
21697;SDS011;11010;49.548;11.926;2023-03-01T09:08:42;31.30;;;12.27;;
21697;SDS011;11010;49.548;11.926;2023-03-01T09:11:13;27.70;;;11.97;;
21697;SDS011;11010;49.548;11.926;2023-03-01T09:13:46;27.10;;;12.00;;
21697;SDS011;11010;49.548;11.926;2023-03-01T09:16:15;26.00;;;11.93;;
21697;SDS011;11010;49.548;11.926;2023-03-01T09:18:44;26.60;;;11.63;;
21697;SDS011;11010;49.548;11.926;2023-03-01T09:21:16;36.13;;;13.80;;
21697;SDS011;11010;49.548;11.926;2023-03-01T09:23:56;29.17;;;12.73;;
21697;SDS011;11010;49.548;11.926;2023-03-01T09:26:24;29.37;;;12.50;;
21697;SDS011;11010;49.548;11.926;2023-03-01T09:28:53;29.90;;;12.47;;
21697;SDS011;11010;49.548;11.926;2023-03-01T09:31:22;30.33;;;11.77;;
21697;SDS011;11010;49.548;11.926;2023-03-01T09:33:51;25.93;;;10.77;;
21697;SDS011;11010;49.548;11.926;2023-03-01T09:36:21;29.13;;;11.10;;
21697;SDS011;11010;49.548;11.926;2023-03-01T09:38:50;28.17;;;11.83;;
21697;SDS011;11010;49.548;11.926;2023-03-01T09:43:57;27.60;;;11.70;;
21697;SDS011;11010;49.548;11.926;2023-03-01T09:46:32;25.60;;;10.47;;
21697;SDS011;11010;49.548;11.926;2023-03-01T09:49:20;26.90;;;11.17;;
21697;SDS011;11010;49.548;11.926;2023-03-01T09:51:58;27.67;;;11.57;;
21697;SDS011;11010;49.548;11.926;2023-03-01T09:54:27;27.53;;;11.73;;
21697;SDS011;11010;49.548;11.926;2023-03-01T10:02:20;27.30;;;11.13;;
21697;SDS011;11010;49.548;11.926;2023-03-01T10:04:55;21.13;;;9.27;;
21697;SDS011;11010;49.548;11.926;2023-03-01T10:10:29;25.47;;;10.73;;
21697;SDS011;11010;49.548;11.926;2023-03-01T10:13:19;23.63;;;10.40;;
21697;SDS011;11010;49.548;11.926;2023-03-01T10:16:01;25.63;;;10.17;;
21697;SDS011;11010;49.548;11.926;2023-03-01T10:18:40;23.73;;;10.40;;
21697;SDS011;11010;49.548;11.926;2023-03-01T10:21:14;24.60;;;10.50;;
21697;SDS011;11010;49.548;11.926;2023-03-01T10:23:44;26.27;;;10.57;;
21697;SDS011;11010;49.548;11.926;2023-03-01T10:26:32;27.73;;;11.20;;
21697;SDS011;11010;49.548;11.926;2023-03-01T10:29:11;23.13;;;10.50;;
21697;SDS011;11010;49.548;11.926;2023-03-01T10:31:47;24.30;;;11.37;;
21697;SDS011;11010;49.548;11.926;2023-03-01T10:34:18;25.50;;;11.30;;
21697;SDS011;11010;49.548;11.926;2023-03-01T10:36:50;25.33;;;11.17;;
21697;SDS011;11010;49.548;11.926;2023-03-01T10:39:20;24.13;;;10.70;;
21697;SDS011;11010;49.548;11.926;2023-03-01T10:42:00;24.83;;;10.60;;
21697;SDS011;11010;49.548;11.926;2023-03-01T10:44:46;27.17;;;11.33;;
21697;SDS011;11010;49.548;11.926;2023-03-01T10:47:25;22.77;;;10.50;;
21697;SDS011;11010;49.548;11.926;2023-03-01T10:49:56;23.57;;;10.53;;
21697;SDS011;11010;49.548;11.926;2023-03-01T10:52:37;23.57;;;10.30;;
21697;SDS011;11010;49.548;11.926;2023-03-01T11:03:37;23.13;;;11.00;;
21697;SDS011;11010;49.548;11.926;2023-03-01T11:08:43;22.37;;;10.40;;
21697;SDS011;11010;49.548;11.926;2023-03-01T11:16:31;23.57;;;10.80;;
21697;SDS011;11010;49.548;11.926;2023-03-01T11:21:39;21.60;;;10.10;;
21697;SDS011;11010;49.548;11.926;2023-03-01T11:24:25;20.50;;;9.63;;
21697;SDS011;11010;49.548;11.926;2023-03-01T11:26:57;22.83;;;10.17;;
21697;SDS011;11010;49.548;11.926;2023-03-01T11:29:32;22.87;;;10.13;;
21697;SDS011;11010;49.548;11.926;2023-03-01T11:32:14;21.83;;;9.90;;
21697;SDS011;11010;49.548;11.926;2023-03-01T11:34:43;20.33;;;9.17;;
21697;SDS011;11010;49.548;11.926;2023-03-01T11:37:36;22.03;;;10.27;;
21697;SDS011;11010;49.548;11.926;2023-03-01T11:40:21;30.40;;;13.30;;
21697;SDS011;11010;49.548;11.926;2023-03-01T11:50:48;25.97;;;12.53;;
21697;SDS011;11010;49.548;11.926;2023-03-01T12:02:24;21.47;;;9.90;;
21697;SDS011;11010;49.548;11.926;2023-03-01T12:33:26;21.60;;;10.13;;
21697;SDS011;11010;49.548;11.926;2023-03-01T12:41:22;22.47;;;10.57;;
21697;SDS011;11010;49.548;11.926;2023-03-01T12:49:48;22.20;;;10.17;;
21697;SDS011;11010;49.548;11.926;2023-03-01T12:52:38;21.30;;;10.60;;
21697;SDS011;11010;49.548;11.926;2023-03-01T12:55:31;21.83;;;10.83;;
21697;SDS011;11010;49.548;11.926;2023-03-01T13:01:16;20.43;;;9.83;;
21697;SDS011;11010;49.548;11.926;2023-03-01T13:11:46;19.50;;;9.07;;
21697;SDS011;11010;49.548;11.926;2023-03-01T13:16:48;19.27;;;9.47;;
21697;SDS011;11010;49.548;11.926;2023-03-01T13:19:18;20.70;;;9.37;;
21697;SDS011;11010;49.548;11.926;2023-03-01T13:21:51;19.40;;;9.47;;
21697;SDS011;11010;49.548;11.926;2023-03-01T13:29:50;19.77;;;9.17;;
21697;SDS011;11010;49.548;11.926;2023-03-01T13:32:28;19.07;;;8.77;;
21697;SDS011;11010;49.548;11.926;2023-03-01T13:37:45;16.83;;;8.30;;
21697;SDS011;11010;49.548;11.926;2023-03-01T13:42:48;20.43;;;9.33;;
21697;SDS011;11010;49.548;11.926;2023-03-01T13:50:38;17.77;;;8.80;;
21697;SDS011;11010;49.548;11.926;2023-03-01T13:53:14;17.03;;;8.43;;
21697;SDS011;11010;49.548;11.926;2023-03-01T13:55:46;19.13;;;8.47;;
21697;SDS011;11010;49.548;11.926;2023-03-01T13:58:24;16.67;;;8.03;;
21697;SDS011;11010;49.548;11.926;2023-03-01T14:00:59;18.60;;;8.67;;
21697;SDS011;11010;49.548;11.926;2023-03-01T14:03:32;17.23;;;8.33;;
21697;SDS011;11010;49.548;11.926;2023-03-01T14:06:02;20.70;;;8.63;;
21697;SDS011;11010;49.548;11.926;2023-03-01T14:08:45;18.67;;;9.23;;
21697;SDS011;11010;49.548;11.926;2023-03-01T14:11:20;19.30;;;8.97;;
21697;SDS011;11010;49.548;11.926;2023-03-01T14:20:12;19.07;;;8.03;;
21697;SDS011;11010;49.548;11.926;2023-03-01T14:22:43;19.83;;;8.20;;
21697;SDS011;11010;49.548;11.926;2023-03-01T14:25:25;17.23;;;8.00;;
21697;SDS011;11010;49.548;11.926;2023-03-01T14:30:50;21.87;;;9.73;;
21697;SDS011;11010;49.548;11.926;2023-03-01T14:33:32;20.23;;;8.90;;
21697;SDS011;11010;49.548;11.926;2023-03-01T14:38:38;21.67;;;9.87;;
21697;SDS011;11010;49.548;11.926;2023-03-01T14:41:09;21.07;;;9.67;;
21697;SDS011;11010;49.548;11.926;2023-03-01T14:43:52;18.10;;;8.73;;
21697;SDS011;11010;49.548;11.926;2023-03-01T14:49:01;20.53;;;9.53;;
21697;SDS011;11010;49.548;11.926;2023-03-01T14:51:38;22.50;;;9.60;;
21697;SDS011;11010;49.548;11.926;2023-03-01T14:54:20;21.37;;;9.97;;
21697;SDS011;11010;49.548;11.926;2023-03-01T14:56:51;20.60;;;9.90;;
21697;SDS011;11010;49.548;11.926;2023-03-01T14:59:23;19.57;;;9.87;;
21697;SDS011;11010;49.548;11.926;2023-03-01T15:01:51;19.80;;;10.27;;
21697;SDS011;11010;49.548;11.926;2023-03-01T15:04:22;22.43;;;9.47;;
21697;SDS011;11010;49.548;11.926;2023-03-01T15:06:52;19.17;;;9.23;;
21697;SDS011;11010;49.548;11.926;2023-03-01T15:09:21;19.27;;;9.57;;
21697;SDS011;11010;49.548;11.926;2023-03-01T15:11:49;22.43;;;10.53;;
21697;SDS011;11010;49.548;11.926;2023-03-01T15:14:27;20.33;;;9.77;;
21697;SDS011;11010;49.548;11.926;2023-03-01T15:17:22;20.70;;;9.33;;
21697;SDS011;11010;49.548;11.926;2023-03-01T15:20:06;20.43;;;9.13;;
21697;SDS011;11010;49.548;11.926;2023-03-01T15:22:43;19.70;;;9.20;;
21697;SDS011;11010;49.548;11.926;2023-03-01T15:25:18;18.97;;;9.27;;
21697;SDS011;11010;49.548;11.926;2023-03-01T15:27:52;18.77;;;8.93;;
21697;SDS011;11010;49.548;11.926;2023-03-01T15:30:39;18.43;;;9.27;;
21697;SDS011;11010;49.548;11.926;2023-03-01T15:33:17;18.73;;;9.10;;
21697;SDS011;11010;49.548;11.926;2023-03-01T15:35:54;22.67;;;10.03;;
21697;SDS011;11010;49.548;11.926;2023-03-01T15:38:31;19.90;;;8.97;;
21697;SDS011;11010;49.548;11.926;2023-03-01T15:41:05;20.53;;;9.63;;
21697;SDS011;11010;49.548;11.926;2023-03-01T15:43:49;18.70;;;8.87;;
21697;SDS011;11010;49.548;11.926;2023-03-01T15:46:27;18.73;;;8.50;;
21697;SDS011;11010;49.548;11.926;2023-03-01T15:49:03;19.47;;;8.70;;
21697;SDS011;11010;49.548;11.926;2023-03-01T15:51:36;19.33;;;8.23;;
21697;SDS011;11010;49.548;11.926;2023-03-01T15:54:14;18.17;;;8.43;;
21697;SDS011;11010;49.548;11.926;2023-03-01T15:56:46;20.27;;;8.77;;
21697;SDS011;11010;49.548;11.926;2023-03-01T15:59:14;20.00;;;8.60;;
21697;SDS011;11010;49.548;11.926;2023-03-01T16:01:43;19.27;;;9.13;;
21697;SDS011;11010;49.548;11.926;2023-03-01T16:04:12;20.57;;;8.90;;
21697;SDS011;11010;49.548;11.926;2023-03-01T16:06:47;19.77;;;9.50;;
21697;SDS011;11010;49.548;11.926;2023-03-01T16:09:24;20.50;;;9.60;;
21697;SDS011;11010;49.548;11.926;2023-03-01T16:11:53;18.83;;;9.17;;
21697;SDS011;11010;49.548;11.926;2023-03-01T16:14:21;20.63;;;9.03;;
21697;SDS011;11010;49.548;11.926;2023-03-01T16:16:48;20.37;;;8.83;;
21697;SDS011;11010;49.548;11.926;2023-03-01T16:19:16;18.37;;;8.23;;
21697;SDS011;11010;49.548;11.926;2023-03-01T16:21:43;19.33;;;8.53;;
21697;SDS011;11010;49.548;11.926;2023-03-01T16:24:13;18.40;;;8.53;;
21697;SDS011;11010;49.548;11.926;2023-03-01T16:26:41;20.10;;;9.13;;
21697;SDS011;11010;49.548;11.926;2023-03-01T16:29:08;20.00;;;8.87;;
21697;SDS011;11010;49.548;11.926;2023-03-01T16:31:36;19.97;;;8.70;;
21697;SDS011;11010;49.548;11.926;2023-03-01T16:34:04;17.80;;;8.67;;
21697;SDS011;11010;49.548;11.926;2023-03-01T16:36:31;19.53;;;8.83;;
21697;SDS011;11010;49.548;11.926;2023-03-01T16:38:59;17.83;;;8.40;;
21697;SDS011;11010;49.548;11.926;2023-03-01T16:41:30;21.37;;;9.33;;
21697;SDS011;11010;49.548;11.926;2023-03-01T16:43:58;18.27;;;8.27;;
21697;SDS011;11010;49.548;11.926;2023-03-01T16:46:26;18.50;;;8.93;;
21697;SDS011;11010;49.548;11.926;2023-03-01T16:48:55;23.13;;;10.03;;
21697;SDS011;11010;49.548;11.926;2023-03-01T16:51:23;20.47;;;9.57;;
21697;SDS011;11010;49.548;11.926;2023-03-01T16:53:51;17.77;;;8.70;;
21697;SDS011;11010;49.548;11.926;2023-03-01T16:56:19;22.10;;;10.03;;
21697;SDS011;11010;49.548;11.926;2023-03-01T16:58:47;20.17;;;9.73;;
21697;SDS011;11010;49.548;11.926;2023-03-01T17:01:18;20.77;;;10.07;;
21697;SDS011;11010;49.548;11.926;2023-03-01T17:03:50;19.47;;;9.57;;
21697;SDS011;11010;49.548;11.926;2023-03-01T17:06:18;20.77;;;9.57;;
21697;SDS011;11010;49.548;11.926;2023-03-01T17:08:48;26.43;;;12.17;;
21697;SDS011;11010;49.548;11.926;2023-03-01T17:11:17;22.47;;;10.50;;
21697;SDS011;11010;49.548;11.926;2023-03-01T17:13:46;22.60;;;10.80;;